»·PEaware :: N864JC KSEA-KPDX

N864JC :: KSEA-KPDX

FLIGHT INFORMATION

Flight Status: Arrived
Operator: Privately registered:
United States
More flights under this callsign
Pilot: Adam B. (30078)
Aircraft: CIRRUS SR-22 TURBO
(S22T)
More flights by this aircraft type
Origin: KSEA Seattle-Tacoma Intl
United States
Destination: KPDX Portland Intl
United States
More flights between these airports :: More routes between these airports
Route: SEA7 SEA V23 BTG
File this flight plan on PilotEdge
Remarks:
Altitude:
(Current/Filed)
9,000ft
Speed:
(Current/Filed)
160kts
Departed: 17-Jul-20 11:19 AM
Arrived: 17-Jul-20 12:16 PM
Distance/Time
Traveled:
112nm/0:56
Distance/Time
To Go:
Arrived

Flight Plot

Page will automatically refresh every two minutes.


Map Options




Map Legend


Flown Route
Filed Route
Departure Airport
Arrival Airport
Navaid (VOR, NDB)
Fix

Horizontal Profiles

Position Reports

Time Latitude Longitude Heading Altitude Ground
Speed
17-Jul-20 10:55 47.463314 -122.305679 327 437ft 0kts
17-Jul-20 10:56 47.463314 -122.305679 327 437ft 0kts
17-Jul-20 10:57 47.463860 -122.304330 207 437ft 0kts
17-Jul-20 10:58 47.463860 -122.304330 207 437ft 0kts
17-Jul-20 10:59 47.463860 -122.304330 207 437ft 0kts
17-Jul-20 11:00 47.463860 -122.304330 207 437ft 0kts
17-Jul-20 11:01 47.463860 -122.304330 207 437ft 0kts
17-Jul-20 11:02 47.463860 -122.304330 207 437ft 0kts
17-Jul-20 11:03 47.463860 -122.304330 207 437ft 0kts
17-Jul-20 11:04 47.463860 -122.304330 207 437ft 0kts
17-Jul-20 11:05 47.463860 -122.304330 207 437ft 0kts
17-Jul-20 11:06 47.463860 -122.304330 207 437ft 0kts
17-Jul-20 11:07 47.463860 -122.304330 207 437ft 0kts
17-Jul-20 11:08 47.463860 -122.304330 207 437ft 0kts
17-Jul-20 11:09 47.463860 -122.304330 207 437ft 0kts
17-Jul-20 11:10 47.463860 -122.304330 207 437ft 0kts
17-Jul-20 11:11 47.463860 -122.304330 207 437ft 0kts
17-Jul-20 11:12 47.463860 -122.304330 207 437ft 0kts
17-Jul-20 11:13 47.463860 -122.304330 207 437ft 0kts
17-Jul-20 11:14 47.463860 -122.304330 207 437ft 0kts
17-Jul-20 11:15 47.463860 -122.304330 207 437ft 0kts
17-Jul-20 11:16 47.463664 -122.306472 282 437ft 0kts
17-Jul-20 11:17 47.462795 -122.307821 179 437ft 27kts
17-Jul-20 11:18 47.439598 -122.309387 186 913ft 131kts
17-Jul-20 11:19 47.403352 -122.309023 179 1916ft 144kts
17-Jul-20 11:20 47.363296 -122.315991 205 2921ft 150kts
17-Jul-20 11:22 47.325974 -122.341983 205 3899ft 153kts
17-Jul-20 11:23 47.291485 -122.366115 205 5363ft 138kts
17-Jul-20 11:24 47.257337 -122.389032 200 6659ft 141kts
17-Jul-20 11:25 47.220172 -122.406994 196 7970ft 144kts
17-Jul-20 11:26 47.182499 -122.424045 196 8839ft 152kts
17-Jul-20 11:27 47.139439 -122.443395 196 8825ft 167kts
17-Jul-20 11:28 47.095184 -122.463266 196 8824ft 169kts
17-Jul-20 11:29 47.050546 -122.483277 196 8824ft 169kts
17-Jul-20 11:30 47.005808 -122.503298 196 8824ft 169kts
17-Jul-20 11:31 46.961341 -122.523162 196 8824ft 169kts
17-Jul-20 11:32 46.916547 -122.543138 196 8824ft 169kts
17-Jul-20 11:33 46.871733 -122.563088 196 8824ft 169kts
17-Jul-20 11:34 46.827241 -122.582860 196 8824ft 169kts
17-Jul-20 11:35 46.782872 -122.602544 196 8824ft 169kts
17-Jul-20 11:36 46.737619 -122.622584 196 8824ft 169kts
17-Jul-20 11:37 46.692726 -122.642431 196 8824ft 169kts
17-Jul-20 11:38 46.649014 -122.661719 196 8824ft 169kts
17-Jul-20 11:39 46.603972 -122.679407 175 8826ft 169kts
17-Jul-20 11:39 46.566200 -122.674154 187 8827ft 169kts
17-Jul-20 11:40 46.522704 -122.687942 221 8792ft 171kts
17-Jul-20 11:42 46.482473 -122.744569 224 8824ft 169kts
17-Jul-20 11:42 46.446912 -122.752297 165 8828ft 169kts
17-Jul-20 11:43 46.403317 -122.739565 170 8830ft 169kts
17-Jul-20 11:44 46.359036 -122.728989 171 8824ft 169kts
17-Jul-20 11:45 46.312598 -122.718410 171 8824ft 169kts
17-Jul-20 11:46 46.265545 -122.707731 171 8824ft 169kts
17-Jul-20 11:47 46.218783 -122.697139 171 8824ft 169kts
17-Jul-20 11:48 46.173721 -122.686947 171 8824ft 169kts
17-Jul-20 11:49 46.127289 -122.676464 171 8824ft 169kts
17-Jul-20 11:50 46.080874 -122.666003 171 8824ft 169kts
17-Jul-20 11:51 46.034949 -122.655670 171 8824ft 169kts
17-Jul-20 11:52 45.988610 -122.645257 171 8812ft 170kts
17-Jul-20 11:53 45.942379 -122.634891 171 8805ft 169kts
17-Jul-20 11:54 45.896075 -122.624528 171 8806ft 169kts
17-Jul-20 11:55 45.849114 -122.614032 171 8806ft 169kts
17-Jul-20 11:56 45.804253 -122.604023 171 8806ft 169kts
17-Jul-20 11:57 45.758113 -122.593746 171 8806ft 169kts
17-Jul-20 11:58 45.711935 -122.592668 181 8806ft 169kts
17-Jul-20 11:59 45.672132 -122.575078 105 8787ft 170kts
17-Jul-20 12:00 45.660011 -122.505939 103 8123ft 183kts
17-Jul-20 12:01 45.648478 -122.439587 103 7293ft 160kts
17-Jul-20 12:02 45.638530 -122.382224 103 6203ft 148kts
17-Jul-20 12:03 45.629264 -122.328765 103 5149ft 143kts
17-Jul-20 12:04 45.619599 -122.273241 115 4012ft 141kts
17-Jul-20 12:05 45.587149 -122.278735 212 2913ft 138kts
17-Jul-20 12:06 45.562201 -122.310606 253 2297ft 87kts
17-Jul-20 12:07 45.555248 -122.347753 254 2316ft 117kts
17-Jul-20 12:08 45.548042 -122.386124 254 2306ft 125kts
17-Jul-20 12:09 45.541161 -122.422760 254 2305ft 126kts
17-Jul-20 12:10 45.541642 -122.460180 303 1836ft 144kts
17-Jul-20 12:11 45.554968 -122.493578 299 1256ft 114kts
17-Jul-20 12:12 45.564668 -122.518382 299 853ft 91kts
17-Jul-20 12:13 45.573960 -122.542173 299 492ft 93kts
17-Jul-20 12:14 45.583375 -122.566418 298 94ft 87kts
17-Jul-20 12:15 45.588737 -122.580244 297 28ft 23kts
17-Jul-20 12:16 45.587500 -122.582919 162 28ft 10kts

Navigation Log

Ident Type
Flight plan parsing failed, navigation log unavailable